createdAt,value
2018-12-22T00:02:21.615Z,66.67
2018-12-22T00:04:50.878Z,66.22
2018-12-22T00:07:19.966Z,64.97
2018-12-22T00:09:48.909Z,66.57
2018-12-22T00:12:18.179Z,63.02
2018-12-22T00:14:47.441Z,67.97
2018-12-22T00:17:16.515Z,64.35
2018-12-22T00:19:45.623Z,63.85
2018-12-22T00:22:14.600Z,65.45
2018-12-22T00:24:43.694Z,63.28
2018-12-22T00:27:12.917Z,65.50
2018-12-22T00:29:42.011Z,63.30
2018-12-22T00:32:11.228Z,61.45
2018-12-22T00:34:40.300Z,62.60
2018-12-22T00:37:09.616Z,62.58
2018-12-22T00:39:38.676Z,63.08
2018-12-22T00:42:07.938Z,61.58
2018-12-22T00:44:37.104Z,61.88
2018-12-22T00:47:06.341Z,60.83
2018-12-22T00:49:35.373Z,61.00
2018-12-22T00:52:04.709Z,60.92
2018-12-22T00:54:33.696Z,61.65
2018-12-22T00:57:02.899Z,60.90
2018-12-22T00:59:32.098Z,60.48
2018-12-22T01:02:01.304Z,58.78
2018-12-22T01:04:30.501Z,59.35
2018-12-22T01:06:59.815Z,59.13
2018-12-22T01:09:29.071Z,59.80
2018-12-22T01:11:58.207Z,58.25
2018-12-22T01:14:27.499Z,58.35
2018-12-22T01:16:56.703Z,59.18
2018-12-22T01:19:25.900Z,57.98
2018-12-22T01:21:54.995Z,59.13
2018-12-22T01:24:24.283Z,57.73
2018-12-22T01:26:53.496Z,58.35
2018-12-22T01:29:22.587Z,57.62
2018-12-22T01:31:51.687Z,57.70
2018-12-22T01:34:21.007Z,57.62
2018-12-22T01:36:50.085Z,57.25
2018-12-22T01:39:19.203Z,57.58
2018-12-22T01:41:48.616Z,57.20
2018-12-22T01:44:17.583Z,56.20
2018-12-22T01:46:46.919Z,55.60
2018-12-22T01:49:15.976Z,56.75
2018-12-22T01:51:45.168Z,57.33
2018-12-22T01:54:14.619Z,55.58
2018-12-22T01:56:43.917Z,55.52
2018-12-22T01:59:13.003Z,55.12
2018-12-22T02:01:42.110Z,54.23
2018-12-22T02:04:11.236Z,53.60
2018-12-22T02:06:40.488Z,53.60
2018-12-22T02:09:09.639Z,52.88
2018-12-22T02:11:38.879Z,54.05
2018-12-22T02:14:08.302Z,51.70
2018-12-22T02:16:37.465Z,53.45
2018-12-22T02:19:06.532Z,52.33
2018-12-22T02:21:35.672Z,53.25
2018-12-22T02:24:04.624Z,53.33
2018-12-22T02:26:33.728Z,52.48
2018-12-22T02:29:02.828Z,50.60
2018-12-22T02:31:31.951Z,53.17
2018-12-22T02:34:01.372Z,50.48
2018-12-22T02:36:30.369Z,51.60
2018-12-22T02:38:59.342Z,52.65
2018-12-22T02:41:28.596Z,51.75
2018-12-22T02:43:57.845Z,51.02
2018-12-22T02:46:26.904Z,51.30
2018-12-22T02:48:56.128Z,52.10
2018-12-22T02:51:25.347Z,51.13
2018-12-22T02:53:54.424Z,49.35
2018-12-22T02:56:23.554Z,49.58
2018-12-22T02:58:52.588Z,49.55
2018-12-22T03:01:21.832Z,49.95
2018-12-22T03:03:51.054Z,49.67
2018-12-22T03:06:20.119Z,49.75
2018-12-22T03:08:49.113Z,50.83
2018-12-22T03:11:18.224Z,48.38
2018-12-22T03:13:47.295Z,49.25
2018-12-22T03:16:16.503Z,49.63
2018-12-22T03:18:45.808Z,48.50
2018-12-22T03:21:15.116Z,49.58
2018-12-22T03:23:44.334Z,47.53
2018-12-22T03:26:13.540Z,45.83
2018-12-22T03:28:43.089Z,49.18
2018-12-22T03:31:12.338Z,47.17
2018-12-22T03:33:41.298Z,44.30
2018-12-22T03:36:10.509Z,44.58
2018-12-22T03:38:39.492Z,45.38
2018-12-22T03:41:08.918Z,45.35
2018-12-22T03:43:38.003Z,44.15
2018-12-22T03:46:07.096Z,45.30
2018-12-22T03:48:36.320Z,44.63
2018-12-22T03:51:05.731Z,45.78
2018-12-22T03:53:34.860Z,46.65
2018-12-22T03:56:04.089Z,44.60
2018-12-22T03:58:33.293Z,44.55
2018-12-22T04:01:02.592Z,44.38
2018-12-22T04:03:31.820Z,43.42
2018-12-22T04:06:00.985Z,44.23
2018-12-22T04:08:29.963Z,44.83
2018-12-22T04:10:59.109Z,44.15
2018-12-22T04:13:28.271Z,44.80
2018-12-22T04:15:57.245Z,43.23
2018-12-22T04:18:26.444Z,42.33
2018-12-22T04:20:55.531Z,43.73
2018-12-22T04:23:24.664Z,41.63
2018-12-22T04:25:53.985Z,42.45
2018-12-22T04:28:23.367Z,43.00
2018-12-22T04:30:52.472Z,42.73
2018-12-22T04:33:21.791Z,43.48
2018-12-22T04:35:50.962Z,43.15
2018-12-22T04:38:20.059Z,42.08
2018-12-22T04:40:49.236Z,41.05
2018-12-22T04:43:18.468Z,41.33
2018-12-22T04:45:47.524Z,43.90
2018-12-22T04:48:16.855Z,41.75
2018-12-22T04:50:46.167Z,41.63
2018-12-22T04:53:15.356Z,39.95
2018-12-22T04:55:44.449Z,40.48
2018-12-22T04:58:13.595Z,41.35
2018-12-22T05:00:42.851Z,40.20
2018-12-22T05:03:11.938Z,41.30
2018-12-22T05:05:40.934Z,41.42
2018-12-22T05:08:10.239Z,39.00
2018-12-22T05:10:39.305Z,40.98
2018-12-22T05:13:08.413Z,39.55
2018-12-22T05:15:37.762Z,40.35
2018-12-22T05:18:06.835Z,39.80
2018-12-22T05:20:36.030Z,39.03
2018-12-22T05:23:05.259Z,38.78
2018-12-22T05:25:34.292Z,38.35
2018-12-22T05:28:03.532Z,40.23
2018-12-22T05:30:32.538Z,37.90
2018-12-22T05:33:01.936Z,39.50
2018-12-22T05:35:32.052Z,38.33
2018-12-22T05:38:01.364Z,39.30
2018-12-22T05:40:30.642Z,39.20
2018-12-22T05:42:59.530Z,39.55
2018-12-22T05:45:28.863Z,38.53
2018-12-22T05:47:57.941Z,37.45
2018-12-22T05:50:27.241Z,37.03
2018-12-22T05:52:56.465Z,39.73
2018-12-22T05:55:25.932Z,38.65
2018-12-22T05:57:54.939Z,38.00
2018-12-22T06:00:23.935Z,37.13
2018-12-22T06:02:53.042Z,39.35
2018-12-22T06:05:22.654Z,38.15
2018-12-22T06:07:51.947Z,38.13
2018-12-22T06:10:21.139Z,38.25
2018-12-22T06:12:50.448Z,38.10
2018-12-22T06:15:19.627Z,37.55
2018-12-22T06:17:48.893Z,36.85
2018-12-22T06:20:18.252Z,36.88
2018-12-22T06:22:47.548Z,38.28
2018-12-22T06:25:16.886Z,38.83
2018-12-22T06:27:46.049Z,38.80
2018-12-22T06:30:15.241Z,38.90
2018-12-22T06:32:44.573Z,37.17
2018-12-22T06:35:13.739Z,39.18
2018-12-22T06:37:42.959Z,38.80
2018-12-22T06:40:12.145Z,37.05
2018-12-22T06:42:41.133Z,36.40
2018-12-22T06:45:10.231Z,36.88
2018-12-22T06:47:39.564Z,37.03
2018-12-22T06:50:08.903Z,37.40
2018-12-22T06:52:38.032Z,36.83
2018-12-22T06:55:07.244Z,36.42
2018-12-22T06:57:36.359Z,36.73
2018-12-22T07:00:05.940Z,38.55
2018-12-22T07:02:35.047Z,38.90
2018-12-22T07:05:04.209Z,38.55
2018-12-22T07:07:33.549Z,39.60
2018-12-22T07:10:03.029Z,39.10
2018-12-22T07:12:32.354Z,37.28
2018-12-22T07:15:01.764Z,38.55
2018-12-22T07:17:30.975Z,37.38
2018-12-22T07:20:00.337Z,37.53
2018-12-22T07:22:29.460Z,37.90
2018-12-22T07:24:58.368Z,39.63
2018-12-22T07:27:27.436Z,39.15
2018-12-22T07:29:56.492Z,38.73
2018-12-22T07:32:25.552Z,38.25
2018-12-22T07:34:54.783Z,37.95
2018-12-22T07:37:24.124Z,37.65
2018-12-22T07:39:54.086Z,36.50
2018-12-22T07:42:23.469Z,37.08
2018-12-22T07:44:52.866Z,38.65
2018-12-22T07:47:22.163Z,41.50
2018-12-22T07:49:51.134Z,40.85
2018-12-22T07:52:20.232Z,39.25
2018-12-22T07:54:49.493Z,39.30
2018-12-22T07:57:18.676Z,38.67
2018-12-22T07:59:48.024Z,37.63
2018-12-22T08:02:17.250Z,36.73
2018-12-22T08:04:46.488Z,37.67
2018-12-22T08:07:15.624Z,38.00
2018-12-22T08:09:44.799Z,37.55
2018-12-22T08:12:13.865Z,37.48
2018-12-22T08:14:42.959Z,36.53
2018-12-22T08:17:11.852Z,37.25
2018-12-22T08:19:41.190Z,43.75
2018-12-22T08:22:10.280Z,37.73
2018-12-22T08:24:39.395Z,38.50
2018-12-22T08:27:08.486Z,37.95
2018-12-22T08:29:37.482Z,37.73
2018-12-22T08:32:06.794Z,39.27
2018-12-22T08:34:35.746Z,38.90
2018-12-22T08:37:04.970Z,37.73
2018-12-22T08:39:34.420Z,38.75
2018-12-22T08:42:03.431Z,36.20
2018-12-22T08:44:32.712Z,37.08
2018-12-22T08:47:02.003Z,37.63
2018-12-22T08:49:31.111Z,36.80
2018-12-22T08:52:00.465Z,36.05
2018-12-22T08:54:29.441Z,38.78
2018-12-22T08:56:58.648Z,35.55
2018-12-22T08:59:27.861Z,37.42
2018-12-22T09:01:56.924Z,37.40
2018-12-22T09:04:26.191Z,37.73
2018-12-22T09:06:55.443Z,37.28
2018-12-22T09:09:24.801Z,37.80
2018-12-22T09:11:53.929Z,37.15
2018-12-22T09:14:23.031Z,37.65
2018-12-22T09:16:52.252Z,37.38
2018-12-22T09:19:21.323Z,38.58
2018-12-22T09:21:50.457Z,36.90
2018-12-22T09:24:19.739Z,36.25
2018-12-22T09:26:48.963Z,36.40
2018-12-22T09:29:18.069Z,37.95
2018-12-22T09:31:47.328Z,37.73
2018-12-22T09:34:16.217Z,36.13
2018-12-22T09:36:45.111Z,37.90
2018-12-22T09:39:14.340Z,36.58
2018-12-22T09:41:43.554Z,36.15
2018-12-22T09:44:12.619Z,37.30
2018-12-22T09:46:41.722Z,36.63
2018-12-22T09:49:10.924Z,36.65
2018-12-22T09:51:39.914Z,37.33
2018-12-22T09:54:09.115Z,39.18
2018-12-22T09:56:38.213Z,57.85
2018-12-22T09:59:07.511Z,60.23
2018-12-22T10:01:36.823Z,57.83
2018-12-22T10:04:05.896Z,60.70
2018-12-22T10:06:35.088Z,61.33
2018-12-22T10:09:04.559Z,39.65
2018-12-22T10:11:33.940Z,40.70
2018-12-22T10:14:03.290Z,71.62
2018-12-22T10:16:32.667Z,55.78
2018-12-22T10:19:02.010Z,54.10
2018-12-22T10:21:31.355Z,48.60
2018-12-22T10:24:00.476Z,65.28
2018-12-22T10:26:29.595Z,53.02
2018-12-22T10:28:59.070Z,52.55
2018-12-22T10:31:28.299Z,59.53
2018-12-22T10:33:57.674Z,48.20
2018-12-22T10:36:27.079Z,65.45
2018-12-22T10:38:56.313Z,59.38
2018-12-22T10:41:25.599Z,54.60
2018-12-22T10:43:54.907Z,55.52
2018-12-22T10:46:23.890Z,85.75
2018-12-22T10:48:52.883Z,77.72
2018-12-22T10:51:24.339Z,66.70
2018-12-22T10:53:53.893Z,53.58
2018-12-22T10:56:23.185Z,85.00
2018-12-22T10:58:52.372Z,89.58
2018-12-22T11:01:26.510Z,64.55
2018-12-22T11:03:53.243Z,69.15
2018-12-22T11:06:22.616Z,68.37
2018-12-22T11:08:51.913Z,65.78
2018-12-22T11:11:21.228Z,83.10
2018-12-22T11:13:50.600Z,80.50
2018-12-22T11:16:20.180Z,70.60
2018-12-22T11:18:49.436Z,82.82
2018-12-22T11:21:18.724Z,79.20
2018-12-22T11:23:47.550Z,77.47
2018-12-22T11:26:16.806Z,73.17
2018-12-22T11:28:45.852Z,78.25
2018-12-22T11:31:15.187Z,81.47
2018-12-22T11:33:44.583Z,83.55
2018-12-22T11:36:13.685Z,90.30
2018-12-22T11:38:42.903Z,92.00
2018-12-22T11:41:12.199Z,110.05
2018-12-22T11:43:41.432Z,120.45
2018-12-22T11:46:10.808Z,94.65
2018-12-22T11:49:43.823Z,99.20
2018-12-22T11:52:13.205Z,99.87
2018-12-22T11:54:42.540Z,112.00
2018-12-22T11:57:11.797Z,104.87
2018-12-22T11:59:41.104Z,93.97
2018-12-22T12:02:10.302Z,107.87
2018-12-22T12:04:39.701Z,109.10
2018-12-22T12:07:09.224Z,113.77
2018-12-22T12:09:38.613Z,107.32
2018-12-22T12:12:07.739Z,93.87
2018-12-22T12:14:37.216Z,129.53
2018-12-22T12:19:19.316Z,115.40
2018-12-22T12:21:48.592Z,98.55
2018-12-22T12:24:18.095Z,100.15
2018-12-22T12:26:47.255Z,95.57
2018-12-22T12:29:16.376Z,98.25
2018-12-22T12:31:52.028Z,111.70
2018-12-22T12:34:17.474Z,109.75
2018-12-22T12:36:46.491Z,112.25
2018-12-22T12:39:16.703Z,115.05
2018-12-22T12:41:46.215Z,124.75
2018-12-22T12:44:15.443Z,128.72
2018-12-22T12:46:50.607Z,125.75
2018-12-22T12:49:20.557Z,139.35
2018-12-22T12:51:49.803Z,141.32
2018-12-22T12:54:19.436Z,152.62
2018-12-22T12:56:53.654Z,155.05
2018-12-22T12:59:23.203Z,157.37
2018-12-22T13:02:00.813Z,157.40
2018-12-22T13:04:23.272Z,159.97
2018-12-22T13:06:52.453Z,162.40
2018-12-22T13:09:21.475Z,166.85
2018-12-22T13:11:52.040Z,166.15
2018-12-22T13:14:25.554Z,168.35
2018-12-22T13:16:54.804Z,166.50
2018-12-22T13:19:23.873Z,155.32
2018-12-22T13:21:54.523Z,174.45
2018-12-22T13:24:23.592Z,184.78
2018-12-22T13:26:52.711Z,183.90
2018-12-22T13:29:21.949Z,193.07
2018-12-22T13:31:50.915Z,185.95
2018-12-22T13:34:20.015Z,184.95
2018-12-22T13:36:49.260Z,150.32
2018-12-22T13:39:22.595Z,151.42
2018-12-22T13:41:51.610Z,152.68
2018-12-22T13:44:20.640Z,150.10
2018-12-22T13:46:49.784Z,148.22
2018-12-22T13:49:19.115Z,141.75
2018-12-22T13:51:48.602Z,132.37
2018-12-22T13:54:22.739Z,141.20
2018-12-22T13:56:51.668Z,140.97
2018-12-22T13:59:20.931Z,139.70
2018-12-22T14:01:55.568Z,138.62
2018-12-22T14:04:24.836Z,141.00
2018-12-22T14:06:53.927Z,138.35
2018-12-22T14:09:22.895Z,136.88
2018-12-22T14:11:52.060Z,136.00
2018-12-22T14:14:25.021Z,134.78
2018-12-22T14:16:59.014Z,133.90
2018-12-22T14:19:28.315Z,133.55
2018-12-22T14:21:57.551Z,134.63
2018-12-22T14:24:43.072Z,131.05
2018-12-22T14:27:12.661Z,125.65
2018-12-22T14:29:42.283Z,128.42
2018-12-22T14:32:11.597Z,127.70
2018-12-22T14:34:47.439Z,126.58
2018-12-22T14:37:16.110Z,128.00
2018-12-22T14:39:45.359Z,124.70
2018-12-22T14:42:14.456Z,126.97
2018-12-22T14:44:43.500Z,126.97
2018-12-22T14:47:12.862Z,124.65
2018-12-22T14:49:41.956Z,121.33
2018-12-22T14:52:11.295Z,122.30
2018-12-22T14:54:40.296Z,119.95
2018-12-22T14:57:09.469Z,118.67
2018-12-22T14:59:39.139Z,114.85
2018-12-22T15:02:08.251Z,118.22
2018-12-22T15:04:37.460Z,114.37
2018-12-22T15:07:07.776Z,115.80
2018-12-22T15:09:36.843Z,116.40
2018-12-22T15:12:06.044Z,115.62
2018-12-22T15:14:35.575Z,112.97
2018-12-22T15:17:04.777Z,111.60
2018-12-22T15:19:36.627Z,111.25
2018-12-22T15:22:06.662Z,93.42
2018-12-22T15:24:35.857Z,106.97
2018-12-22T15:27:04.957Z,105.90
2018-12-22T15:29:33.972Z,104.53
2018-12-22T15:32:03.331Z,105.10
2018-12-22T15:34:32.536Z,107.40
2018-12-22T15:37:01.645Z,106.50
2018-12-22T15:39:30.708Z,106.92
2018-12-22T15:41:59.803Z,101.95
2018-12-22T15:44:29.020Z,102.47
2018-12-22T15:46:58.127Z,104.67
2018-12-22T15:49:27.963Z,103.22
2018-12-22T15:51:57.031Z,103.40
2018-12-22T15:54:25.903Z,100.78
2018-12-22T15:56:55.035Z,101.18
2018-12-22T15:59:24.208Z,100.22
2018-12-22T16:01:53.352Z,99.25
2018-12-22T16:04:22.693Z,96.50
2018-12-22T16:06:51.954Z,99.17
2018-12-22T16:09:21.161Z,95.42
2018-12-22T16:11:50.432Z,97.20
2018-12-22T16:14:19.643Z,94.07
2018-12-22T16:16:48.821Z,95.47
2018-12-22T16:19:18.166Z,96.40
2018-12-22T16:21:47.321Z,94.45
2018-12-22T16:24:16.765Z,92.65
2018-12-22T16:26:45.828Z,94.20
2018-12-22T16:29:36.329Z,92.27
2018-12-22T16:32:05.519Z,89.58
2018-12-22T16:34:34.561Z,89.58
2018-12-22T16:37:03.676Z,90.85
2018-12-22T16:39:32.940Z,89.97
2018-12-22T16:42:02.104Z,90.12
2018-12-22T16:44:31.408Z,89.92
2018-12-22T16:47:00.543Z,88.47
2018-12-22T16:49:29.657Z,86.20
2018-12-22T16:51:58.913Z,86.47
2018-12-22T16:54:27.969Z,84.67
2018-12-22T16:56:56.964Z,85.45
2018-12-22T16:59:27.665Z,85.53
2018-12-22T17:02:48.655Z,86.70
2018-12-22T17:05:17.796Z,84.17
2018-12-22T17:07:47.128Z,84.13
2018-12-22T17:10:16.250Z,82.72
2018-12-22T17:12:45.267Z,82.75
2018-12-22T17:15:21.933Z,82.72
2018-12-22T17:17:45.915Z,79.25
2018-12-22T17:20:15.233Z,80.10
2018-12-22T17:22:55.211Z,79.80
2018-12-22T17:25:29.671Z,80.15
2018-12-22T17:27:58.649Z,78.67
2018-12-22T17:30:27.764Z,79.10
2018-12-22T17:32:56.849Z,80.20
2018-12-22T17:35:26.051Z,79.50
2018-12-22T17:37:55.136Z,76.17
2018-12-22T17:40:24.491Z,78.92
2018-12-22T17:42:53.472Z,77.15
2018-12-22T17:45:22.671Z,76.62
2018-12-22T17:47:51.964Z,77.85
2018-12-22T17:50:21.241Z,77.65
2018-12-22T17:52:50.539Z,73.17
2018-12-22T17:55:19.752Z,75.85
2018-12-22T17:57:49.048Z,74.22
2018-12-22T18:00:20.329Z,72.40
2018-12-22T18:02:49.503Z,74.32
2018-12-22T18:05:18.709Z,73.85
2018-12-22T18:07:47.965Z,71.57
2018-12-22T18:10:17.040Z,72.22
2018-12-22T18:12:46.092Z,76.60
2018-12-22T18:15:18.376Z,74.27
2018-12-22T18:17:47.491Z,74.32
2018-12-22T18:20:16.754Z,73.57
2018-12-22T18:22:45.774Z,73.12
2018-12-22T18:25:16.131Z,72.90
2018-12-22T18:27:45.089Z,74.35
2018-12-22T18:30:14.425Z,73.83
2018-12-22T18:32:43.903Z,73.05
2018-12-22T18:35:12.855Z,72.72
2018-12-22T18:37:41.734Z,71.28
2018-12-22T18:40:13.603Z,74.87
2018-12-22T18:42:42.720Z,71.10
2018-12-22T18:45:12.535Z,72.35
2018-12-22T18:47:42.208Z,72.45
2018-12-22T18:50:18.557Z,71.97
2018-12-22T18:52:47.996Z,68.67
2018-12-22T18:55:17.025Z,72.00
2018-12-22T18:57:47.853Z,70.10
2018-12-22T19:00:19.903Z,67.05
2018-12-22T19:02:49.107Z,67.65
2018-12-22T19:05:18.748Z,68.97
2018-12-22T19:07:48.032Z,66.45
2018-12-22T19:10:28.683Z,67.80
2018-12-22T19:12:57.883Z,66.30
2018-12-22T19:15:26.888Z,66.42
2018-12-22T19:17:56.022Z,65.72
2018-12-22T19:20:29.579Z,67.27
2018-12-22T19:22:58.582Z,66.47
2018-12-22T19:25:28.029Z,66.42
2018-12-22T19:27:56.972Z,64.87
2018-12-22T19:30:26.228Z,66.20
2018-12-22T19:32:55.400Z,64.75
2018-12-22T19:35:24.821Z,65.35
2018-12-22T19:37:54.041Z,63.60
2018-12-22T19:40:23.164Z,65.20
2018-12-22T19:42:52.516Z,63.92
2018-12-22T19:45:21.555Z,64.67
2018-12-22T19:47:50.991Z,63.95
2018-12-22T19:50:20.210Z,64.45
2018-12-22T19:52:50.107Z,62.30
2018-12-22T19:55:19.144Z,63.70
2018-12-22T19:57:48.541Z,63.58
2018-12-22T20:00:18.062Z,64.27
2018-12-22T20:02:47.237Z,62.00
2018-12-22T20:05:16.541Z,63.55
2018-12-22T20:07:45.941Z,62.93
2018-12-22T20:10:15.258Z,67.25
2018-12-22T20:12:44.544Z,64.35
2018-12-22T20:15:13.842Z,62.58
2018-12-22T20:17:42.972Z,64.17
2018-12-22T20:20:12.200Z,60.80
2018-12-22T20:22:41.547Z,62.53
2018-12-22T20:25:10.829Z,60.15
2018-12-22T20:27:39.848Z,61.18
2018-12-22T20:30:09.333Z,62.23
2018-12-22T20:32:38.544Z,62.93
2018-12-22T20:35:07.759Z,59.15
2018-12-22T20:37:36.799Z,59.38
2018-12-22T20:40:06.873Z,58.38
2018-12-22T20:42:36.081Z,59.95
2018-12-22T20:45:05.248Z,58.13
2018-12-22T20:47:34.535Z,61.30
2018-12-22T20:50:03.818Z,59.93
2018-12-22T20:52:32.987Z,61.65
2018-12-22T20:55:02.136Z,59.48
2018-12-22T20:57:31.588Z,59.67
2018-12-22T21:00:00.855Z,57.73
2018-12-22T21:02:29.819Z,58.60
2018-12-22T21:04:58.972Z,58.40
2018-12-22T21:07:28.243Z,57.67
2018-12-22T21:09:57.551Z,58.55
2018-12-22T21:12:26.637Z,59.93
2018-12-22T21:14:55.872Z,57.93
2018-12-22T21:17:24.833Z,58.30
2018-12-22T21:19:53.894Z,60.25
2018-12-22T21:22:23.158Z,58.40
2018-12-22T21:24:52.379Z,56.25
2018-12-22T21:27:21.559Z,56.28
2018-12-22T21:29:50.680Z,56.88
2018-12-22T21:32:19.956Z,56.53
2018-12-22T21:34:49.340Z,57.65
2018-12-22T21:37:18.428Z,58.17
2018-12-22T21:39:47.625Z,59.40
2018-12-22T21:42:16.926Z,59.98
2018-12-22T21:44:46.352Z,58.38
2018-12-22T21:47:15.968Z,60.48
2018-12-22T21:49:45.017Z,58.95
2018-12-22T21:52:14.431Z,60.33
2018-12-22T21:54:43.544Z,59.63
2018-12-22T21:57:12.653Z,59.48
2018-12-22T21:59:42.000Z,59.48
2018-12-22T22:02:11.187Z,59.70
2018-12-22T22:04:40.677Z,58.10
2018-12-22T22:07:09.843Z,59.70
2018-12-22T22:09:39.061Z,59.35
2018-12-22T22:12:08.461Z,60.25
2018-12-22T22:14:37.736Z,59.15
2018-12-22T22:17:07.043Z,57.90
2018-12-22T22:19:36.211Z,59.58
2018-12-22T22:22:05.361Z,60.43
2018-12-22T22:24:34.727Z,58.50
2018-12-22T22:27:03.834Z,57.73
2018-12-22T22:29:33.144Z,60.98
2018-12-22T22:32:02.219Z,60.85
2018-12-22T22:34:31.191Z,57.30
2018-12-22T22:37:00.320Z,57.98
2018-12-22T22:39:29.633Z,59.13
2018-12-22T22:41:58.951Z,58.25
2018-12-22T22:44:28.328Z,57.30
2018-12-22T22:46:57.523Z,58.28
2018-12-22T22:49:26.725Z,59.45
2018-12-22T22:51:55.720Z,59.63
2018-12-22T22:54:24.816Z,58.78
2018-12-22T22:56:53.856Z,59.58
2018-12-22T22:59:23.108Z,58.48
2018-12-22T23:01:52.316Z,57.05
2018-12-22T23:04:22.548Z,59.42
2018-12-22T23:06:51.813Z,58.00
2018-12-22T23:09:21.050Z,59.13
2018-12-22T23:11:49.995Z,58.02
2018-12-22T23:14:18.989Z,58.52
2018-12-22T23:16:48.216Z,59.08
2018-12-22T23:19:17.417Z,58.15
2018-12-22T23:21:46.729Z,57.35
2018-12-22T23:24:16.051Z,60.25
2018-12-22T23:26:45.432Z,56.58
2018-12-22T23:29:14.522Z,57.62
2018-12-22T23:31:43.618Z,59.23
2018-12-22T23:34:13.025Z,57.73
2018-12-22T23:36:42.451Z,57.55
2018-12-22T23:39:11.732Z,58.25
2018-12-22T23:41:40.904Z,57.88
2018-12-22T23:44:10.023Z,59.13
2018-12-22T23:46:39.083Z,57.27
2018-12-22T23:49:08.204Z,57.48
2018-12-22T23:51:37.092Z,55.10
2018-12-22T23:54:05.867Z,57.23
2018-12-22T23:56:35.089Z,56.20
2018-12-22T23:59:04.159Z,58.02
